createdAt,value
2022-07-25T00:00:09.596Z,1.00
2022-07-25T00:02:36.857Z,1.00
2022-07-25T00:05:04.704Z,1.00
2022-07-25T00:07:31.705Z,1.00
2022-07-25T00:09:58.658Z,1.00
2022-07-25T00:12:25.618Z,1.00
2022-07-25T00:14:52.551Z,1.00
2022-07-25T00:17:19.489Z,1.00
2022-07-25T00:19:46.409Z,1.00
2022-07-25T00:22:13.586Z,1.00
2022-07-25T00:24:40.521Z,1.00
2022-07-25T00:27:08.394Z,1.00
2022-07-25T00:29:36.131Z,1.00
2022-07-25T00:32:03.280Z,1.00
2022-07-25T00:34:30.241Z,1.00
2022-07-25T00:36:57.372Z,1.00
2022-07-25T00:39:24.332Z,1.00
2022-07-25T00:41:51.287Z,1.00
2022-07-25T00:44:27.469Z,1.00
2022-07-25T00:46:55.485Z,1.00
2022-07-25T00:49:22.894Z,1.00
2022-07-25T00:51:50.488Z,1.00
2022-07-25T00:54:17.649Z,1.00
2022-07-25T00:56:45.060Z,1.00
2022-07-25T00:59:12.205Z,1.00
2022-07-25T01:01:40.290Z,1.00
2022-07-25T01:04:07.845Z,1.00
2022-07-25T01:06:35.503Z,1.00
2022-07-25T01:09:04.370Z,1.00
2022-07-25T01:11:31.498Z,1.00
2022-07-25T01:13:58.423Z,1.00
2022-07-25T01:16:25.386Z,1.00
2022-07-25T01:18:52.425Z,1.00
2022-07-25T01:21:19.297Z,1.00
2022-07-25T01:23:46.189Z,1.00
2022-07-25T01:26:13.158Z,1.00
2022-07-25T01:28:40.087Z,1.00
2022-07-25T01:31:07.613Z,1.00
2022-07-25T01:33:34.738Z,1.00
2022-07-25T01:36:01.787Z,1.00
2022-07-25T01:38:28.677Z,1.00
2022-07-25T01:40:55.996Z,1.00
2022-07-25T01:43:22.916Z,1.00
2022-07-25T01:45:50.105Z,1.00
2022-07-25T01:48:17.041Z,1.00
2022-07-25T01:50:46.978Z,1.00
2022-07-25T01:53:15.884Z,1.00
2022-07-25T01:55:44.720Z,1.00
2022-07-25T01:58:11.952Z,1.00
2022-07-25T02:00:40.060Z,1.00
2022-07-25T02:03:25.484Z,2.40
2022-07-25T02:05:52.584Z,3.60
2022-07-25T02:08:19.566Z,16.30
2022-07-25T02:10:46.506Z,20.40
2022-07-25T02:13:13.523Z,24.60
2022-07-25T02:15:40.430Z,27.30
2022-07-25T02:18:07.370Z,32.80
2022-07-25T02:20:34.419Z,47.30
2022-07-25T02:23:01.334Z,56.20
2022-07-25T02:25:28.282Z,72.50
2022-07-25T02:27:55.135Z,80.20
2022-07-25T02:30:22.094Z,81.60
2022-07-25T02:32:48.975Z,69.70
2022-07-25T02:35:15.931Z,67.10
2022-07-25T02:37:42.857Z,90.10
2022-07-25T02:40:10.385Z,81.80
2022-07-25T02:42:37.327Z,75.80
2022-07-25T02:45:04.893Z,90.00
2022-07-25T02:47:32.025Z,94.80
2022-07-25T02:49:58.905Z,80.40
2022-07-25T02:52:25.803Z,70.80
2022-07-25T02:54:52.774Z,79.60
2022-07-25T02:57:19.719Z,90.00
2022-07-25T02:59:46.659Z,90.20
2022-07-25T03:02:13.614Z,94.90
2022-07-25T03:04:40.496Z,97.50
2022-07-25T03:07:07.361Z,96.60
2022-07-25T03:09:34.276Z,99.90
2022-07-25T03:12:01.141Z,99.90
2022-07-25T03:14:28.074Z,99.90
2022-07-25T03:16:55.010Z,99.90
2022-07-25T03:19:22.216Z,99.90
2022-07-25T03:21:49.187Z,99.90
2022-07-25T03:24:16.153Z,99.90
2022-07-25T03:26:43.164Z,99.90
2022-07-25T03:29:10.038Z,99.90
2022-07-25T03:31:37.041Z,99.90
2022-07-25T03:34:04.179Z,99.90
2022-07-25T03:36:31.391Z,99.90
2022-07-25T03:38:58.432Z,99.90
2022-07-25T03:41:27.897Z,99.90
2022-07-25T03:43:55.435Z,99.90
2022-07-25T03:46:23.179Z,99.90
2022-07-25T03:48:50.171Z,99.90
2022-07-25T03:51:17.099Z,99.90
2022-07-25T03:54:02.013Z,99.90
2022-07-25T03:56:49.135Z,99.90
2022-07-25T03:59:18.791Z,99.90
2022-07-25T04:01:47.834Z,99.90
2022-07-25T04:04:15.416Z,99.90
2022-07-25T04:06:42.309Z,99.90
2022-07-25T04:09:10.629Z,99.90
2022-07-25T04:11:38.481Z,99.90
2022-07-25T04:14:06.237Z,99.90
2022-07-25T04:16:33.858Z,99.90
2022-07-25T04:19:01.204Z,99.90
2022-07-25T04:21:29.023Z,99.90
2022-07-25T04:23:55.956Z,99.90
2022-07-25T04:26:22.948Z,99.90
2022-07-25T04:28:49.943Z,99.90
2022-07-25T04:31:17.169Z,99.90
2022-07-25T04:33:44.638Z,99.90
2022-07-25T04:36:11.635Z,99.90
2022-07-25T04:38:38.575Z,99.90
2022-07-25T04:41:05.733Z,99.90
2022-07-25T04:43:32.705Z,99.90
2022-07-25T04:45:59.841Z,99.90
2022-07-25T04:48:27.102Z,99.90
2022-07-25T04:50:54.219Z,99.90
2022-07-25T04:53:21.155Z,99.90
2022-07-25T04:55:48.143Z,99.90
2022-07-25T04:58:15.149Z,99.90
2022-07-25T05:00:42.279Z,99.90
2022-07-25T05:03:09.260Z,99.90
2022-07-25T05:05:36.606Z,99.90
2022-07-25T05:08:03.610Z,99.90
2022-07-25T05:10:30.699Z,99.90
2022-07-25T05:12:57.884Z,99.90
2022-07-25T05:15:24.941Z,99.90
2022-07-25T05:17:51.968Z,99.90
2022-07-25T05:20:19.064Z,99.90
2022-07-25T05:22:45.980Z,99.90
2022-07-25T05:25:13.068Z,99.90
2022-07-25T05:27:40.488Z,99.90
2022-07-25T05:30:09.463Z,99.90
2022-07-25T05:32:36.884Z,99.90
2022-07-25T05:35:04.991Z,99.90
2022-07-25T05:37:31.839Z,99.90
2022-07-25T05:39:58.753Z,99.90
2022-07-25T05:42:25.785Z,99.90
2022-07-25T05:44:52.766Z,99.90
2022-07-25T05:47:19.702Z,99.90
2022-07-25T05:49:47.250Z,99.90
2022-07-25T05:52:14.410Z,99.90
2022-07-25T05:54:41.453Z,99.90
2022-07-25T05:57:08.465Z,99.90
2022-07-25T05:59:35.375Z,99.90
2022-07-25T06:02:03.715Z,99.90
2022-07-25T06:04:30.763Z,99.90
2022-07-25T06:06:57.741Z,99.90
2022-07-25T06:09:24.710Z,99.90
2022-07-25T06:12:00.365Z,99.90
2022-07-25T06:14:28.628Z,99.90
2022-07-25T06:16:56.015Z,99.90
2022-07-25T06:19:23.288Z,99.90
2022-07-25T06:21:50.206Z,99.90
2022-07-25T06:24:17.203Z,99.90
2022-07-25T06:26:44.873Z,99.90
2022-07-25T06:29:12.381Z,99.90
2022-07-25T06:31:39.681Z,99.90
2022-07-25T06:34:07.297Z,99.90
2022-07-25T06:36:34.883Z,99.90
2022-07-25T06:39:02.122Z,99.90
2022-07-25T06:41:29.007Z,99.90
2022-07-25T06:43:55.949Z,99.90
2022-07-25T06:46:23.005Z,99.90
2022-07-25T06:48:50.057Z,99.90
2022-07-25T06:51:17.082Z,99.90
2022-07-25T06:53:43.988Z,99.90
2022-07-25T06:56:15.742Z,99.90
2022-07-25T06:58:44.719Z,99.90
2022-07-25T07:01:11.796Z,99.90
2022-07-25T07:03:39.970Z,99.90
2022-07-25T07:06:12.213Z,99.90
2022-07-25T07:08:39.163Z,99.90
2022-07-25T07:11:06.750Z,99.90
2022-07-25T07:13:34.309Z,94.20
2022-07-25T07:16:01.416Z,93.50
2022-07-25T07:18:28.426Z,92.50
2022-07-25T07:20:55.418Z,88.00
2022-07-25T07:23:22.337Z,60.50
2022-07-25T07:25:51.613Z,60.80
2022-07-25T07:28:18.942Z,59.30
2022-07-25T07:31:15.182Z,47.60
2022-07-25T07:33:33.668Z,37.20
2022-07-25T07:36:01.509Z,31.60
2022-07-25T07:38:28.414Z,29.10
2022-07-25T07:40:55.360Z,22.50
2022-07-25T07:43:27.530Z,18.80
2022-07-25T07:45:56.803Z,16.90
2022-07-25T07:48:23.697Z,1.00
2022-07-25T07:50:50.581Z,2.50
2022-07-25T07:53:17.518Z,1.00
2022-07-25T07:55:44.599Z,1.00
2022-07-25T07:58:16.441Z,1.00
2022-07-25T08:00:46.016Z,1.00
2022-07-25T08:03:13.731Z,1.00
2022-07-25T08:05:44.468Z,1.00
2022-07-25T08:08:14.538Z,1.00
2022-07-25T08:10:44.544Z,1.00
2022-07-25T08:13:25.702Z,1.00
2022-07-25T08:15:58.121Z,1.00
2022-07-25T08:18:26.406Z,1.00
2022-07-25T08:20:53.389Z,1.00
2022-07-25T08:23:20.422Z,1.00
2022-07-25T08:25:47.567Z,1.00
2022-07-25T08:28:15.111Z,1.00
2022-07-25T08:30:42.402Z,1.00
2022-07-25T08:33:13.239Z,1.00
2022-07-25T08:35:41.874Z,1.00
2022-07-25T08:38:11.646Z,1.00
2022-07-25T08:40:39.026Z,1.00
2022-07-25T08:43:06.072Z,1.00
2022-07-25T08:45:33.467Z,1.00
2022-07-25T08:48:00.434Z,1.00
2022-07-25T08:50:29.592Z,1.00
2022-07-25T08:53:16.548Z,1.00
2022-07-25T08:55:45.874Z,1.00
2022-07-25T08:58:15.239Z,1.00
2022-07-25T09:00:43.042Z,1.00
2022-07-25T09:03:10.599Z,1.00
2022-07-25T09:05:38.671Z,1.00
2022-07-25T09:08:08.730Z,1.00
2022-07-25T09:10:36.972Z,1.00
2022-07-25T09:13:05.266Z,1.00
2022-07-25T09:15:33.508Z,1.00
2022-07-25T09:18:08.141Z,1.00
2022-07-25T09:21:00.666Z,1.00
2022-07-25T09:23:33.475Z,1.00
2022-07-25T09:26:07.520Z,1.00
2022-07-25T09:28:45.399Z,1.00
2022-07-25T09:31:13.543Z,1.00
2022-07-25T09:33:56.555Z,1.00
2022-07-25T09:36:23.794Z,1.00
2022-07-25T09:38:55.284Z,1.00
2022-07-25T09:41:22.298Z,1.00
2022-07-25T09:43:49.307Z,1.00
2022-07-25T09:46:16.848Z,1.00
2022-07-25T09:48:45.602Z,1.00
2022-07-25T09:51:12.604Z,1.00
2022-07-25T09:53:41.068Z,1.00
2022-07-25T09:56:08.856Z,1.00
2022-07-25T09:58:35.863Z,1.00
2022-07-25T10:01:06.571Z,1.00
2022-07-25T10:03:50.560Z,1.00
2022-07-25T10:06:29.163Z,1.00
2022-07-25T10:08:56.873Z,1.00
2022-07-25T10:11:28.104Z,1.00
2022-07-25T10:13:55.552Z,1.00
2022-07-25T10:16:27.164Z,1.00
2022-07-25T10:18:59.011Z,1.00
2022-07-25T10:21:28.530Z,1.00
2022-07-25T10:24:05.227Z,1.00
2022-07-25T10:26:33.609Z,1.00
2022-07-25T10:29:01.795Z,1.00
2022-07-25T10:31:43.868Z,1.00
2022-07-25T10:34:14.766Z,1.00
2022-07-25T10:36:46.064Z,1.00
2022-07-25T10:39:15.184Z,1.00
2022-07-25T10:41:50.411Z,1.00
2022-07-25T10:44:17.511Z,1.00
2022-07-25T10:46:45.281Z,1.00
2022-07-25T10:49:31.959Z,1.00
2022-07-25T10:52:04.388Z,1.00
2022-07-25T10:54:39.353Z,1.00
2022-07-25T10:57:13.974Z,1.00
2022-07-25T10:59:41.848Z,1.00
2022-07-25T11:02:17.267Z,1.00
2022-07-25T11:04:46.418Z,1.00
2022-07-25T11:07:17.770Z,1.00
2022-07-25T11:09:45.232Z,1.00
2022-07-25T11:12:15.922Z,1.00
2022-07-25T11:14:43.937Z,1.00
2022-07-25T11:17:16.872Z,1.00
2022-07-25T11:19:45.394Z,1.00
2022-07-25T11:22:12.627Z,1.00
2022-07-25T11:24:45.301Z,1.00
2022-07-25T11:27:20.177Z,1.00
2022-07-25T11:29:47.136Z,1.00
2022-07-25T11:32:14.323Z,1.00
2022-07-25T11:34:53.449Z,1.00
2022-07-25T11:37:22.140Z,1.00
2022-07-25T11:39:49.493Z,1.00
2022-07-25T11:42:19.308Z,1.00
2022-07-25T11:44:51.586Z,1.00
2022-07-25T11:47:25.190Z,1.00
2022-07-25T11:49:54.293Z,1.00
2022-07-25T11:52:27.489Z,1.00
2022-07-25T11:54:59.821Z,1.00
2022-07-25T11:57:31.515Z,1.00
2022-07-25T12:00:02.857Z,1.00
2022-07-25T12:02:32.667Z,1.00
2022-07-25T12:05:08.685Z,1.00
2022-07-25T12:07:45.701Z,1.00
2022-07-25T12:10:19.664Z,1.00
2022-07-25T12:12:46.697Z,1.00
2022-07-25T12:15:14.153Z,1.00
2022-07-25T12:17:41.695Z,1.00
2022-07-25T12:20:15.171Z,1.00
2022-07-25T12:22:42.403Z,1.00
2022-07-25T12:25:10.187Z,1.00
2022-07-25T12:27:37.154Z,1.00
2022-07-25T12:30:06.113Z,1.00
2022-07-25T12:32:33.212Z,1.00
2022-07-25T12:35:00.346Z,1.00
2022-07-25T12:37:27.725Z,1.00
2022-07-25T12:39:54.814Z,1.00
2022-07-25T12:42:21.808Z,1.00
2022-07-25T12:44:48.848Z,1.00
2022-07-25T12:47:15.848Z,1.00
2022-07-25T12:49:43.020Z,1.00
2022-07-25T12:52:11.684Z,1.00
2022-07-25T12:54:38.576Z,1.00
2022-07-25T12:57:05.767Z,1.00
2022-07-25T12:59:32.869Z,1.00
2022-07-25T13:01:59.882Z,1.00
2022-07-25T13:04:26.938Z,1.00
2022-07-25T13:06:57.896Z,1.00
2022-07-25T13:09:25.923Z,1.00
2022-07-25T13:11:53.450Z,1.00
2022-07-25T13:14:20.567Z,1.00
2022-07-25T13:16:48.527Z,1.00
2022-07-25T13:19:16.468Z,1.00
2022-07-25T13:21:43.967Z,1.00
2022-07-25T13:24:12.107Z,1.00
2022-07-25T13:26:39.819Z,1.00
2022-07-25T13:29:08.984Z,1.00
2022-07-25T13:31:37.724Z,1.00
2022-07-25T13:34:04.757Z,1.00
2022-07-25T13:36:33.632Z,1.00
2022-07-25T13:39:00.613Z,1.00
2022-07-25T13:41:27.988Z,1.00
2022-07-25T13:43:55.482Z,1.00
2022-07-25T13:46:22.592Z,1.00
2022-07-25T13:48:49.820Z,1.00
2022-07-25T13:51:16.917Z,1.00
2022-07-25T13:53:44.983Z,1.00
2022-07-25T13:56:13.300Z,1.00
2022-07-25T13:58:40.874Z,1.00
2022-07-25T14:01:09.685Z,1.00
2022-07-25T14:03:36.985Z,1.00
2022-07-25T14:06:04.938Z,1.00
2022-07-25T14:08:32.347Z,1.00
2022-07-25T14:10:59.240Z,1.00
2022-07-25T14:13:26.150Z,1.00
2022-07-25T14:15:53.134Z,1.00
2022-07-25T14:18:20.092Z,1.00
2022-07-25T14:20:47.022Z,1.00
2022-07-25T14:23:13.932Z,1.00
2022-07-25T14:25:40.847Z,1.00
2022-07-25T14:28:07.774Z,1.00
2022-07-25T14:30:34.688Z,1.00
2022-07-25T14:33:01.654Z,1.00
2022-07-25T14:35:32.351Z,1.00
2022-07-25T14:37:59.833Z,1.00
2022-07-25T14:40:27.318Z,1.00
2022-07-25T14:42:54.457Z,1.00
2022-07-25T14:45:22.055Z,1.00
2022-07-25T14:47:49.681Z,1.00
2022-07-25T14:50:16.673Z,1.00
2022-07-25T14:52:43.633Z,1.00
2022-07-25T14:55:10.646Z,1.00
2022-07-25T14:57:37.864Z,1.00
2022-07-25T15:00:05.731Z,1.00
2022-07-25T15:02:32.668Z,1.00
2022-07-25T15:04:59.550Z,1.00
2022-07-25T15:07:26.554Z,1.00
2022-07-25T15:09:53.458Z,1.00
2022-07-25T15:12:20.917Z,1.00
2022-07-25T15:14:47.791Z,1.00
2022-07-25T15:17:14.783Z,1.00
2022-07-25T15:19:41.692Z,1.00
2022-07-25T15:22:08.667Z,1.00
2022-07-25T15:24:50.129Z,1.00
2022-07-25T15:27:22.437Z,1.00
2022-07-25T15:29:49.419Z,1.00
2022-07-25T15:32:16.397Z,1.00
2022-07-25T15:34:43.433Z,1.00
2022-07-25T15:37:10.416Z,1.00
2022-07-25T15:39:37.326Z,1.00
2022-07-25T15:42:04.306Z,1.00
2022-07-25T15:44:32.723Z,1.00
2022-07-25T15:46:59.796Z,1.00
2022-07-25T15:49:26.860Z,1.00
2022-07-25T15:51:53.852Z,1.00
2022-07-25T15:54:22.103Z,1.00
2022-07-25T15:56:51.125Z,1.00
2022-07-25T15:59:18.200Z,1.00
2022-07-25T16:01:45.206Z,1.00
2022-07-25T16:04:12.286Z,1.00
2022-07-25T16:06:39.577Z,1.00
2022-07-25T16:09:07.089Z,1.00
2022-07-25T16:11:35.774Z,1.00
2022-07-25T16:14:02.751Z,1.00
2022-07-25T16:16:29.827Z,1.00
2022-07-25T16:18:57.617Z,1.00
2022-07-25T16:21:24.501Z,1.00
2022-07-25T16:23:51.422Z,1.00
2022-07-25T16:26:20.334Z,1.00
2022-07-25T16:28:47.831Z,1.00
2022-07-25T16:31:14.944Z,1.00
2022-07-25T16:33:41.856Z,1.00
2022-07-25T16:36:10.622Z,1.00
2022-07-25T16:38:37.638Z,1.00
2022-07-25T16:41:04.792Z,1.00
2022-07-25T16:43:31.953Z,1.00
2022-07-25T16:45:58.875Z,1.00
2022-07-25T16:48:25.865Z,1.00
2022-07-25T16:50:52.821Z,1.00
2022-07-25T16:53:20.664Z,1.00
2022-07-25T16:55:47.598Z,1.00
2022-07-25T16:58:14.561Z,1.00
2022-07-25T17:00:41.713Z,1.00
2022-07-25T17:03:08.646Z,1.00
2022-07-25T17:05:35.650Z,1.00
2022-07-25T17:08:02.894Z,1.00
2022-07-25T17:10:30.030Z,1.00
2022-07-25T17:12:56.959Z,1.00
2022-07-25T17:15:24.143Z,1.00
2022-07-25T17:17:51.179Z,1.00
2022-07-25T17:20:19.336Z,1.00
2022-07-25T17:22:46.243Z,1.00
2022-07-25T17:25:13.268Z,1.00
2022-07-25T17:27:40.228Z,1.00
2022-07-25T17:30:07.595Z,1.00
2022-07-25T17:32:34.499Z,1.00
2022-07-25T17:35:01.424Z,1.00
2022-07-25T17:37:28.422Z,1.00
2022-07-25T17:39:55.660Z,1.00
2022-07-25T17:42:22.618Z,1.00
2022-07-25T17:44:50.559Z,1.00
2022-07-25T17:47:18.204Z,1.00
2022-07-25T17:49:45.541Z,1.00
2022-07-25T17:52:12.517Z,1.00
2022-07-25T17:54:42.846Z,1.00
2022-07-25T17:57:10.294Z,1.00
2022-07-25T17:59:37.305Z,1.00
2022-07-25T18:02:04.343Z,1.00
2022-07-25T18:04:31.415Z,1.00
2022-07-25T18:06:59.016Z,1.00
2022-07-25T18:09:25.955Z,1.00
2022-07-25T18:11:54.659Z,1.00
2022-07-25T18:14:21.743Z,1.00
2022-07-25T18:16:48.639Z,1.00
2022-07-25T18:19:15.606Z,1.00
2022-07-25T18:21:42.485Z,1.00
2022-07-25T18:24:10.005Z,1.00
2022-07-25T18:26:37.121Z,1.00
2022-07-25T18:29:06.081Z,1.00
2022-07-25T18:31:33.039Z,1.00
2022-07-25T18:34:00.265Z,1.00
2022-07-25T18:36:27.375Z,1.00
2022-07-25T18:38:54.368Z,1.00
2022-07-25T18:41:30.357Z,1.00
2022-07-25T18:43:57.577Z,1.00
2022-07-25T18:46:24.697Z,1.00
2022-07-25T18:48:52.364Z,1.00
2022-07-25T18:51:20.654Z,1.00
2022-07-25T18:53:48.880Z,1.00
2022-07-25T18:56:16.811Z,1.00
2022-07-25T18:58:44.518Z,1.00
2022-07-25T19:01:12.603Z,1.00
2022-07-25T19:03:40.827Z,1.00
2022-07-25T19:06:09.184Z,1.00
2022-07-25T19:08:36.642Z,1.00
2022-07-25T19:11:04.180Z,1.00
2022-07-25T19:16:18.521Z,1.00
2022-07-25T19:18:45.624Z,1.00
2022-07-25T19:21:12.595Z,1.00
2022-07-25T19:23:39.549Z,1.00
2022-07-25T19:26:06.568Z,1.00
2022-07-25T19:28:34.956Z,1.00
2022-07-25T19:31:02.406Z,1.00
2022-07-25T19:33:35.759Z,1.00
2022-07-25T19:36:04.155Z,1.00
2022-07-25T19:38:31.506Z,1.00
2022-07-25T19:40:59.023Z,1.00
2022-07-25T19:43:26.001Z,1.00
2022-07-25T19:45:52.893Z,1.00
2022-07-25T19:48:23.730Z,1.00
2022-07-25T19:50:52.007Z,1.00
2022-07-25T19:53:19.039Z,1.00
2022-07-25T19:55:46.016Z,1.00
2022-07-25T19:58:12.979Z,1.00
2022-07-25T20:00:40.252Z,1.00
2022-07-25T20:03:07.267Z,1.00
2022-07-25T20:05:34.237Z,1.00
2022-07-25T20:08:01.140Z,1.00
2022-07-25T20:10:28.194Z,1.00
2022-07-25T20:13:00.881Z,1.00
2022-07-25T20:15:28.508Z,1.00
2022-07-25T20:17:56.760Z,1.00
2022-07-25T20:20:24.058Z,1.00
2022-07-25T20:22:51.102Z,1.00
2022-07-25T20:25:18.205Z,1.00
2022-07-25T20:27:45.145Z,1.00
2022-07-25T20:30:13.372Z,1.00
2022-07-25T20:32:40.328Z,1.00
2022-07-25T20:35:07.798Z,1.00
2022-07-25T20:37:35.574Z,1.00
2022-07-25T20:40:03.878Z,1.00
2022-07-25T20:42:31.771Z,1.00
2022-07-25T20:44:58.723Z,1.00
2022-07-25T20:47:25.713Z,1.00
2022-07-25T20:49:52.650Z,1.00
2022-07-25T20:52:19.628Z,1.00
2022-07-25T20:54:46.515Z,1.00
2022-07-25T20:57:14.101Z,1.00
2022-07-25T20:59:41.008Z,1.00
2022-07-25T21:02:07.977Z,1.00
2022-07-25T21:04:34.934Z,1.00
2022-07-25T21:07:01.791Z,1.00
2022-07-25T21:09:32.782Z,1.00
2022-07-25T21:12:01.152Z,1.00
2022-07-25T21:14:28.581Z,1.00
2022-07-25T21:16:55.528Z,1.00
2022-07-25T21:19:22.463Z,1.00
2022-07-25T21:21:49.524Z,1.00
2022-07-25T21:24:16.671Z,1.00
2022-07-25T21:26:43.680Z,1.00
2022-07-25T21:29:11.168Z,1.00
2022-07-25T21:31:38.593Z,1.00
2022-07-25T21:34:05.618Z,1.00
2022-07-25T21:36:32.682Z,1.00
2022-07-25T21:38:59.617Z,1.00
2022-07-25T21:41:26.521Z,1.00
2022-07-25T21:43:53.456Z,1.00
2022-07-25T21:46:20.445Z,1.00
2022-07-25T21:49:05.959Z,1.90
2022-07-25T21:51:40.557Z,5.70
2022-07-25T21:54:08.335Z,4.60
2022-07-25T21:56:35.223Z,6.60
2022-07-25T21:59:02.131Z,7.10
2022-07-25T22:01:29.285Z,5.70
2022-07-25T22:03:56.365Z,8.40
2022-07-25T22:06:23.433Z,9.50
2022-07-25T22:08:50.359Z,13.70
2022-07-25T22:11:38.903Z,16.00
2022-07-25T22:14:04.259Z,15.10
2022-07-25T22:16:31.245Z,16.80
2022-07-25T22:18:58.266Z,17.80
2022-07-25T22:21:25.312Z,15.30
2022-07-25T22:23:52.232Z,16.30
2022-07-25T22:26:20.305Z,19.60
2022-07-25T22:28:48.006Z,21.30
2022-07-25T22:31:15.303Z,27.00
2022-07-25T22:33:42.238Z,30.00
2022-07-25T22:36:09.501Z,30.80
2022-07-25T22:38:36.840Z,33.10
2022-07-25T22:41:03.779Z,38.50
2022-07-25T22:43:57.419Z,40.00
2022-07-25T22:46:17.727Z,49.60
2022-07-25T22:48:44.855Z,58.90
2022-07-25T22:51:12.029Z,60.50
2022-07-25T22:53:39.151Z,68.40
2022-07-25T22:56:06.203Z,71.00
2022-07-25T22:58:33.083Z,69.90
2022-07-25T23:01:00.032Z,67.70
2022-07-25T23:03:29.733Z,71.20
2022-07-25T23:05:58.536Z,65.50
2022-07-25T23:08:25.488Z,53.50
2022-07-25T23:10:52.399Z,54.20
2022-07-25T23:13:19.368Z,56.70
2022-07-25T23:15:50.435Z,54.70
2022-07-25T23:18:18.630Z,54.80
2022-07-25T23:20:45.619Z,55.50
2022-07-25T23:23:12.884Z,52.30
2022-07-25T23:25:39.922Z,57.60
2022-07-25T23:28:06.942Z,70.10
2022-07-25T23:30:38.224Z,71.70
2022-07-25T23:33:07.423Z,81.00
2022-07-25T23:35:35.324Z,99.40
2022-07-25T23:38:02.403Z,82.00
2022-07-25T23:40:29.914Z,82.10
2022-07-25T23:42:56.873Z,77.00
2022-07-25T23:45:25.451Z,81.90
2022-07-25T23:47:55.741Z,79.70
2022-07-25T23:50:23.123Z,64.30
2022-07-25T23:52:50.258Z,64.50
2022-07-25T23:55:17.477Z,61.30
2022-07-25T23:57:44.435Z,61.80
